createdAt,value
2023-11-22T00:00:24.932Z,45.09
2023-11-22T00:01:25.246Z,45.09
2023-11-22T00:02:25.469Z,45.09
2023-11-22T00:03:25.682Z,45.09
2023-11-22T00:04:25.932Z,45.09
2023-11-22T00:05:26.866Z,45.09
2023-11-22T00:06:26.514Z,45.07
2023-11-22T00:07:26.756Z,45.07
2023-11-22T00:08:27.032Z,45.09
2023-11-22T00:09:27.243Z,45.09
2023-11-22T00:10:27.490Z,45.07
2023-11-22T00:11:27.812Z,45.07
2023-11-22T00:12:28.011Z,45.07
2023-11-22T00:13:28.243Z,45.07
2023-11-22T00:14:28.543Z,45.07
2023-11-22T00:15:28.746Z,45.09
2023-11-22T00:16:28.993Z,45.07
2023-11-22T00:17:29.310Z,45.07
2023-11-22T00:18:29.584Z,45.07
2023-11-22T00:19:29.775Z,45.07
2023-11-22T00:20:30.059Z,45.07
2023-11-22T00:21:30.348Z,45.07
2023-11-22T00:22:30.578Z,45.07
2023-11-22T00:23:30.845Z,45.07
2023-11-22T00:24:31.175Z,45.07
2023-11-22T00:25:31.415Z,45.07
2023-11-22T00:26:31.692Z,45.07
2023-11-22T00:27:31.900Z,45.07
2023-11-22T00:28:32.148Z,45.07
2023-11-22T00:29:32.434Z,44.97
2023-11-22T00:30:32.630Z,44.97
2023-11-22T00:31:32.872Z,44.97
2023-11-22T00:32:33.253Z,44.97
2023-11-22T00:33:33.350Z,44.97
2023-11-22T00:34:33.602Z,44.97
2023-11-22T00:35:33.921Z,44.97
2023-11-22T00:36:34.113Z,44.97
2023-11-22T00:37:34.341Z,44.97
2023-11-22T00:38:34.599Z,45.07
2023-11-22T00:39:34.813Z,44.97
2023-11-22T00:40:35.068Z,44.97
2023-11-22T00:41:35.314Z,44.97
2023-11-22T00:42:35.654Z,44.97
2023-11-22T00:43:35.895Z,44.97
2023-11-22T00:44:36.147Z,44.97
2023-11-22T00:45:36.386Z,44.97
2023-11-22T00:46:36.648Z,44.97
2023-11-22T00:47:36.986Z,44.97
2023-11-22T00:48:37.199Z,44.97
2023-11-22T00:49:37.449Z,44.97
2023-11-22T00:50:37.714Z,44.97
2023-11-22T00:51:37.924Z,44.97
2023-11-22T00:52:38.166Z,44.97
2023-11-22T00:53:38.390Z,44.97
2023-11-22T00:54:38.745Z,44.97
2023-11-22T00:55:38.982Z,44.97
2023-11-22T00:56:39.339Z,44.97
2023-11-22T00:57:39.570Z,44.97
2023-11-22T00:58:39.824Z,44.97
2023-11-22T00:59:40.067Z,44.97
2023-11-22T01:00:40.310Z,44.97
2023-11-22T01:01:40.566Z,44.97
2023-11-22T01:02:41.422Z,44.97
2023-11-22T01:03:41.158Z,44.97
2023-11-22T01:04:41.393Z,44.97
2023-11-22T01:05:41.621Z,44.97
2023-11-22T01:06:41.876Z,44.97
2023-11-22T01:07:42.107Z,44.97
2023-11-22T01:08:42.363Z,44.97
2023-11-22T01:09:42.592Z,44.97
2023-11-22T01:10:42.838Z,44.97
2023-11-22T01:11:43.061Z,44.97
2023-11-22T01:12:43.523Z,44.97
2023-11-22T01:13:43.752Z,44.97
2023-11-22T01:14:44.014Z,44.97
2023-11-22T01:15:44.222Z,44.97
2023-11-22T01:16:44.490Z,44.97
2023-11-22T01:17:44.826Z,44.97
2023-11-22T01:18:46.548Z,44.97
2023-11-22T01:19:45.255Z,44.97
2023-11-22T01:20:45.500Z,44.97
2023-11-22T01:21:45.743Z,44.97
2023-11-22T01:22:45.984Z,44.87
2023-11-22T01:23:46.230Z,44.87
2023-11-22T01:24:46.479Z,44.87
2023-11-22T01:25:46.710Z,44.87
2023-11-22T01:26:47.078Z,44.87
2023-11-22T01:27:47.307Z,44.87
2023-11-22T01:28:47.676Z,44.87
2023-11-22T01:29:47.921Z,44.97
2023-11-22T01:30:48.170Z,44.87
2023-11-22T01:31:48.430Z,44.87
2023-11-22T01:32:48.725Z,44.87
2023-11-22T01:33:48.933Z,44.87
2023-11-22T01:34:49.303Z,44.87
2023-11-22T01:35:49.580Z,44.87
2023-11-22T01:36:49.784Z,44.87
2023-11-22T01:37:50.019Z,44.87
2023-11-22T01:38:51.225Z,44.87
2023-11-22T01:39:50.512Z,44.87
2023-11-22T01:40:50.753Z,44.87
2023-11-22T01:41:51.090Z,44.87
2023-11-22T01:42:51.297Z,44.87
2023-11-22T01:43:51.532Z,44.87
2023-11-22T01:44:51.789Z,44.87
2023-11-22T01:45:52.054Z,44.87
2023-11-22T01:46:52.259Z,44.87
2023-11-22T01:47:52.530Z,44.87
2023-11-22T01:48:52.744Z,44.87
2023-11-22T01:49:52.988Z,44.87
2023-11-22T01:50:53.226Z,44.78
2023-11-22T01:51:53.463Z,44.78
2023-11-22T01:52:53.713Z,44.78
2023-11-22T01:53:53.950Z,44.87
2023-11-22T01:54:54.201Z,44.87
2023-11-22T01:55:54.434Z,44.87
2023-11-22T01:56:54.818Z,44.78
2023-11-22T01:57:55.046Z,44.78
2023-11-22T01:58:55.440Z,44.87
2023-11-22T01:59:55.639Z,44.78
2023-11-22T02:00:56.042Z,44.78
2023-11-22T02:01:56.370Z,44.78
2023-11-22T02:02:56.817Z,44.87
2023-11-22T02:03:56.877Z,44.78
2023-11-22T02:04:57.018Z,44.78
2023-11-22T02:05:57.209Z,44.87
2023-11-22T02:06:57.466Z,44.78
2023-11-22T02:07:57.721Z,44.87
2023-11-22T02:08:58.051Z,44.78
2023-11-22T02:09:58.313Z,44.78
2023-11-22T02:11:00.092Z,44.87
2023-11-22T02:11:58.873Z,44.87
2023-11-22T02:12:59.122Z,44.78
2023-11-22T02:13:59.380Z,44.87
2023-11-22T02:14:59.613Z,44.78
2023-11-22T02:15:59.831Z,44.87
2023-11-22T02:17:00.105Z,44.78
2023-11-22T02:18:05.576Z,44.87
2023-11-22T02:19:01.566Z,44.87
2023-11-22T02:20:00.917Z,44.87
2023-11-22T02:21:01.137Z,44.87
2023-11-22T02:22:01.362Z,44.87
2023-11-22T02:23:01.630Z,44.87
2023-11-22T02:24:01.873Z,44.87
2023-11-22T02:25:02.173Z,44.78
2023-11-22T02:26:02.493Z,44.78
2023-11-22T02:27:02.906Z,44.87
2023-11-22T02:28:03.292Z,44.78
2023-11-22T02:29:03.768Z,44.87
2023-11-22T02:30:03.965Z,44.87
2023-11-22T02:31:04.261Z,44.78
2023-11-22T02:32:04.175Z,44.87
2023-11-22T02:33:04.441Z,44.87
2023-11-22T02:34:04.642Z,44.87
2023-11-22T02:35:04.915Z,44.78
2023-11-22T02:36:05.148Z,44.78
2023-11-22T02:37:05.396Z,44.87
2023-11-22T02:38:05.653Z,44.78
2023-11-22T02:39:05.879Z,44.78
2023-11-22T02:40:06.126Z,44.78
2023-11-22T02:41:06.414Z,44.78
2023-11-22T02:42:06.615Z,44.78
2023-11-22T02:43:06.971Z,44.87
2023-11-22T02:44:07.250Z,44.87
2023-11-22T02:45:07.511Z,44.78
2023-11-22T02:46:07.775Z,44.78
2023-11-22T02:47:08.055Z,44.78
2023-11-22T02:48:08.324Z,44.78
2023-11-22T02:49:08.510Z,44.78
2023-11-22T02:50:08.806Z,44.78
2023-11-22T02:51:09.045Z,44.78
2023-11-22T02:52:09.273Z,44.78
2023-11-22T02:53:09.635Z,44.78
2023-11-22T02:54:09.859Z,44.78
2023-11-22T02:55:10.291Z,44.78
2023-11-22T02:56:10.513Z,44.78
2023-11-22T02:57:10.728Z,44.78
2023-11-22T02:58:10.966Z,44.78
2023-11-22T02:59:11.243Z,44.78
2023-11-22T03:00:11.465Z,44.78
2023-11-22T03:01:11.708Z,44.78
2023-11-22T03:02:12.016Z,44.78
2023-11-22T03:03:12.303Z,44.78
2023-11-22T03:04:12.562Z,44.78
2023-11-22T03:05:12.789Z,44.78
2023-11-22T03:06:13.009Z,44.78
2023-11-22T03:07:13.263Z,44.67
2023-11-22T03:08:13.697Z,44.67
2023-11-22T03:09:13.904Z,44.67
2023-11-22T03:10:14.158Z,44.67
2023-11-22T03:11:14.414Z,44.78
2023-11-22T03:12:14.637Z,44.67
2023-11-22T03:13:14.876Z,44.67
2023-11-22T03:14:15.188Z,44.67
2023-11-22T03:15:15.375Z,44.67
2023-11-22T03:16:15.648Z,44.67
2023-11-22T03:17:15.898Z,44.67
2023-11-22T03:18:16.236Z,44.67
2023-11-22T03:19:16.453Z,44.78
2023-11-22T03:20:16.769Z,44.67
2023-11-22T03:21:16.955Z,44.67
2023-11-22T03:22:17.220Z,44.67
2023-11-22T03:23:17.488Z,44.67
2023-11-22T03:24:17.699Z,44.67
2023-11-22T03:25:17.930Z,44.67
2023-11-22T03:26:18.194Z,44.67
2023-11-22T03:27:18.404Z,44.67
2023-11-22T03:28:18.692Z,44.67
2023-11-22T03:29:18.932Z,44.67
2023-11-22T03:30:19.176Z,44.67
2023-11-22T03:31:19.410Z,44.67
2023-11-22T03:32:19.823Z,44.67
2023-11-22T03:33:20.074Z,44.67
2023-11-22T03:34:20.326Z,44.67
2023-11-22T03:35:20.573Z,44.67
2023-11-22T03:36:20.783Z,44.67
2023-11-22T03:37:21.081Z,44.67
2023-11-22T03:38:21.360Z,44.67
2023-11-22T03:39:21.570Z,44.67
2023-11-22T03:40:21.940Z,44.67
2023-11-22T03:41:22.346Z,44.67
2023-11-22T03:42:22.578Z,44.67
2023-11-22T03:43:22.796Z,44.67
2023-11-22T03:44:23.058Z,44.67
2023-11-22T03:45:23.296Z,44.67
2023-11-22T03:46:23.543Z,44.67
2023-11-22T03:47:23.896Z,44.67
2023-11-22T03:48:24.193Z,44.67
2023-11-22T03:49:24.404Z,44.67
2023-11-22T03:50:24.735Z,44.67
2023-11-22T03:51:24.902Z,44.67
2023-11-22T03:52:25.197Z,44.67
2023-11-22T03:53:25.492Z,44.67
2023-11-22T03:54:25.706Z,44.67
2023-11-22T03:55:25.927Z,44.67
2023-11-22T03:56:26.188Z,44.67
2023-11-22T03:57:26.401Z,44.67
2023-11-22T03:58:26.652Z,44.67
2023-11-22T03:59:26.944Z,44.67
2023-11-22T04:00:27.181Z,44.67
2023-11-22T04:01:27.499Z,44.57
2023-11-22T04:02:27.743Z,44.57
2023-11-22T04:03:28.007Z,44.67
2023-11-22T04:04:28.223Z,44.57
2023-11-22T04:05:28.501Z,44.57
2023-11-22T04:06:28.848Z,44.67
2023-11-22T04:07:29.088Z,44.67
2023-11-22T04:08:29.472Z,44.67
2023-11-22T04:09:29.688Z,44.67
2023-11-22T04:10:29.944Z,44.67
2023-11-22T04:11:30.206Z,44.57
2023-11-22T04:12:31.196Z,44.67
2023-11-22T04:13:30.695Z,44.67
2023-11-22T04:14:30.997Z,44.67
2023-11-22T04:15:31.246Z,44.67
2023-11-22T04:16:31.595Z,44.67
2023-11-22T04:17:31.863Z,44.57
2023-11-22T04:18:32.174Z,44.67
2023-11-22T04:19:32.437Z,44.67
2023-11-22T04:20:32.802Z,44.67
2023-11-22T04:21:33.056Z,44.67
2023-11-22T04:22:33.287Z,44.57
2023-11-22T04:23:33.551Z,44.57
2023-11-22T04:24:33.772Z,44.57
2023-11-22T04:25:34.019Z,44.57
2023-11-22T04:26:34.395Z,44.57
2023-11-22T04:27:34.641Z,44.67
2023-11-22T04:28:34.865Z,44.57
2023-11-22T04:29:35.122Z,44.57
2023-11-22T04:30:35.472Z,44.57
2023-11-22T04:31:35.700Z,44.57
2023-11-22T04:32:36.032Z,44.57
2023-11-22T04:33:36.294Z,44.67
2023-11-22T04:34:36.532Z,44.57
2023-11-22T04:35:36.835Z,44.57
2023-11-22T04:36:37.049Z,44.57
2023-11-22T04:37:37.275Z,44.57
2023-11-22T04:38:37.567Z,44.57
2023-11-22T04:39:37.758Z,44.57
2023-11-22T04:40:38.121Z,44.57
2023-11-22T04:41:38.386Z,44.57
2023-11-22T04:42:38.732Z,44.57
2023-11-22T04:43:38.967Z,44.57
2023-11-22T04:44:39.358Z,44.57
2023-11-22T04:45:39.567Z,44.57
2023-11-22T04:46:39.817Z,44.57
2023-11-22T04:47:40.202Z,44.57
2023-11-22T04:48:40.324Z,44.57
2023-11-22T04:49:40.529Z,44.47
2023-11-22T04:50:40.972Z,44.47
2023-11-22T04:51:41.182Z,44.57
2023-11-22T04:52:41.445Z,44.47
2023-11-22T04:53:41.688Z,44.47
2023-11-22T04:54:42.027Z,44.57
2023-11-22T04:55:42.259Z,44.47
2023-11-22T04:56:42.570Z,44.47
2023-11-22T04:57:42.781Z,44.47
2023-11-22T04:58:43.153Z,44.47
2023-11-22T04:59:43.398Z,44.47
2023-11-22T05:00:43.655Z,44.47
2023-11-22T05:01:43.857Z,44.57
2023-11-22T05:02:44.258Z,44.57
2023-11-22T05:03:44.463Z,44.57
2023-11-22T05:04:44.662Z,44.57
2023-11-22T05:05:44.923Z,44.57
2023-11-22T05:06:45.155Z,44.57
2023-11-22T05:07:45.371Z,44.57
2023-11-22T05:08:45.665Z,44.57
2023-11-22T05:09:45.869Z,44.57
2023-11-22T05:10:46.107Z,44.67
2023-11-22T05:11:46.342Z,44.67
2023-11-22T05:12:46.650Z,44.70
2023-11-22T05:13:46.930Z,44.70
2023-11-22T05:14:47.156Z,44.70
2023-11-22T05:15:47.475Z,44.70
2023-11-22T05:16:47.677Z,44.70
2023-11-22T05:17:47.948Z,44.70
2023-11-22T05:18:48.158Z,44.70
2023-11-22T05:19:48.396Z,44.70
2023-11-22T05:20:48.676Z,44.70
2023-11-22T05:21:48.879Z,44.79
2023-11-22T05:22:49.239Z,44.70
2023-11-22T05:23:49.528Z,44.79
2023-11-22T05:24:49.725Z,44.79
2023-11-22T05:25:49.950Z,44.79
2023-11-22T05:26:50.201Z,44.70
2023-11-22T05:27:50.423Z,44.70
2023-11-22T05:28:50.791Z,44.79
2023-11-22T05:29:55.266Z,44.79
2023-11-22T05:30:51.326Z,44.89
2023-11-22T05:31:51.541Z,44.79
2023-11-22T05:32:51.913Z,44.79
2023-11-22T05:33:52.169Z,44.89
2023-11-22T05:34:52.398Z,44.79
2023-11-22T05:35:52.632Z,44.89
2023-11-22T05:36:52.882Z,44.79
2023-11-22T05:37:53.115Z,44.79
2023-11-22T05:38:53.489Z,44.89
2023-11-22T05:39:53.715Z,44.89
2023-11-22T05:40:54.076Z,44.89
2023-11-22T05:41:54.301Z,44.89
2023-11-22T05:42:54.673Z,44.89
2023-11-22T05:43:54.944Z,45.00
2023-11-22T05:44:55.238Z,44.89
2023-11-22T05:45:55.446Z,44.89
2023-11-22T05:46:55.672Z,44.89
2023-11-22T05:47:55.944Z,44.89
2023-11-22T05:48:56.179Z,45.00
2023-11-22T05:49:56.448Z,45.00
2023-11-22T05:50:56.747Z,45.00
2023-11-22T05:51:56.869Z,45.00
2023-11-22T05:52:57.115Z,45.00
2023-11-22T05:53:57.349Z,45.01
2023-11-22T05:54:57.747Z,45.00
2023-11-22T05:55:57.907Z,45.00
2023-11-22T05:56:58.156Z,45.00
2023-11-22T05:57:58.376Z,45.01
2023-11-22T05:58:58.630Z,45.01
2023-11-22T05:59:58.920Z,45.01
2023-11-22T06:00:59.137Z,45.01
2023-11-22T06:01:59.367Z,45.01
2023-11-22T06:02:59.811Z,45.01
2023-11-22T06:04:00.090Z,45.01
2023-11-22T06:05:00.442Z,45.01
2023-11-22T06:06:00.538Z,45.01
2023-11-22T06:07:00.776Z,45.01
2023-11-22T06:08:00.985Z,45.01
2023-11-22T06:09:01.233Z,45.01
2023-11-22T06:10:01.471Z,45.01
2023-11-22T06:11:01.748Z,44.92
2023-11-22T06:12:01.966Z,44.92
2023-11-22T06:13:02.217Z,45.01
2023-11-22T06:14:02.436Z,45.01
2023-11-22T06:15:02.698Z,45.01
2023-11-22T06:16:02.964Z,44.92
2023-11-22T06:17:03.188Z,45.01
2023-11-22T06:18:03.442Z,44.92
2023-11-22T06:19:03.678Z,44.92
2023-11-22T06:20:03.926Z,44.92
2023-11-22T06:21:04.128Z,45.01
2023-11-22T06:22:04.378Z,45.01
2023-11-22T06:23:04.649Z,44.92
2023-11-22T06:24:04.877Z,44.92
2023-11-22T06:25:05.103Z,44.92
2023-11-22T06:26:05.454Z,44.92
2023-11-22T06:27:05.644Z,45.01
2023-11-22T06:28:05.881Z,45.01
2023-11-22T06:29:06.256Z,45.01
2023-11-22T06:30:06.475Z,44.92
2023-11-22T06:31:06.723Z,45.01
2023-11-22T06:32:06.964Z,45.01
2023-11-22T06:33:07.328Z,45.01
2023-11-22T06:34:07.626Z,45.01
2023-11-22T06:35:07.882Z,45.01
2023-11-22T06:36:08.070Z,44.92
2023-11-22T06:37:08.316Z,45.01
2023-11-22T06:38:08.564Z,45.01
2023-11-22T06:39:08.908Z,44.92
2023-11-22T06:40:09.141Z,45.01
2023-11-22T06:41:09.423Z,45.01
2023-11-22T06:42:09.623Z,45.01
2023-11-22T06:43:09.871Z,45.01
2023-11-22T06:44:10.180Z,44.92
2023-11-22T06:45:10.379Z,44.92
2023-11-22T06:46:10.662Z,45.01
2023-11-22T06:47:11.125Z,45.01
2023-11-22T06:48:11.548Z,45.01
2023-11-22T06:49:12.067Z,45.01
2023-11-22T06:50:12.182Z,44.92
2023-11-22T06:51:12.511Z,44.92
2023-11-22T06:52:12.294Z,44.82
2023-11-22T06:53:13.461Z,44.92
2023-11-22T06:54:12.834Z,44.92
2023-11-22T06:55:13.083Z,45.01
2023-11-22T06:56:13.367Z,45.01
2023-11-22T06:57:13.572Z,44.92
2023-11-22T06:58:13.802Z,45.01
2023-11-22T06:59:14.084Z,44.92
2023-11-22T07:00:14.290Z,44.92
2023-11-22T07:01:16.460Z,44.92
2023-11-22T07:02:14.870Z,44.82
2023-11-22T07:03:15.119Z,44.92
2023-11-22T07:04:15.446Z,44.92
2023-11-22T07:05:15.758Z,44.92
2023-11-22T07:06:15.957Z,44.92
2023-11-22T07:07:16.188Z,44.92
2023-11-22T07:08:16.580Z,44.92
2023-11-22T07:09:16.786Z,45.01
2023-11-22T07:10:17.070Z,44.92
2023-11-22T07:11:17.378Z,44.92
2023-11-22T07:12:17.656Z,44.92
2023-11-22T07:13:17.860Z,44.92
2023-11-22T07:14:18.157Z,44.92
2023-11-22T07:15:18.393Z,44.92
2023-11-22T07:16:18.659Z,44.92
2023-11-22T07:17:18.951Z,44.92
2023-11-22T07:18:19.170Z,44.82
2023-11-22T07:19:19.410Z,44.82
2023-11-22T07:20:19.805Z,44.82
2023-11-22T07:21:20.049Z,44.82
2023-11-22T07:22:20.317Z,44.92
2023-11-22T07:23:20.601Z,44.82
2023-11-22T07:24:20.796Z,44.92
2023-11-22T07:25:21.154Z,44.92
2023-11-22T07:26:21.425Z,44.92
2023-11-22T07:27:21.654Z,44.92
2023-11-22T07:28:21.883Z,44.92
2023-11-22T07:29:22.170Z,44.92
2023-11-22T07:30:22.420Z,44.82
2023-11-22T07:31:23.256Z,44.82
2023-11-22T07:32:22.905Z,45.01
2023-11-22T07:33:23.253Z,45.01
2023-11-22T07:34:23.468Z,45.21
2023-11-22T07:35:23.820Z,45.12
2023-11-22T07:36:24.087Z,44.92
2023-11-22T07:37:24.369Z,44.92
2023-11-22T07:38:24.669Z,45.01
2023-11-22T07:39:24.922Z,45.12
2023-11-22T07:40:25.197Z,44.92
2023-11-22T07:41:25.507Z,44.71
2023-11-22T07:42:25.722Z,44.82
2023-11-22T07:43:26.003Z,44.82
2023-11-22T07:44:26.305Z,44.82
2023-11-22T07:45:26.542Z,44.82
2023-11-22T07:46:26.843Z,44.71
2023-11-22T07:47:27.104Z,44.82
2023-11-22T07:48:27.383Z,44.82
2023-11-22T07:49:27.636Z,44.82
2023-11-22T07:50:27.936Z,44.71
2023-11-22T07:51:28.192Z,44.71
2023-11-22T07:52:28.440Z,44.71
2023-11-22T07:53:28.739Z,44.71
2023-11-22T07:54:28.992Z,44.71
2023-11-22T07:55:29.248Z,44.71
2023-11-22T07:56:29.537Z,44.71
2023-11-22T07:57:29.799Z,44.71
2023-11-22T07:58:30.045Z,44.71
2023-11-22T07:59:30.354Z,44.71
2023-11-22T08:00:30.573Z,44.71
2023-11-22T08:01:30.887Z,44.71
2023-11-22T08:02:31.483Z,44.92
2023-11-22T08:03:31.483Z,44.82
2023-11-22T08:04:31.749Z,44.71
2023-11-22T08:05:32.027Z,44.71
2023-11-22T08:06:32.263Z,44.71
2023-11-22T08:07:32.523Z,44.82
2023-11-22T08:08:32.847Z,45.01
2023-11-22T08:09:33.091Z,45.01
2023-11-22T08:10:33.338Z,45.12
2023-11-22T08:11:33.681Z,45.12
2023-11-22T08:12:33.898Z,45.12
2023-11-22T08:13:34.156Z,45.12
2023-11-22T08:14:34.617Z,45.12
2023-11-22T08:15:34.796Z,45.12
2023-11-22T08:16:35.021Z,44.92
2023-11-22T08:17:35.389Z,44.92
2023-11-22T08:18:35.667Z,44.92
2023-11-22T08:19:35.770Z,45.01
2023-11-22T08:20:36.063Z,44.92
2023-11-22T08:21:36.313Z,44.92
2023-11-22T08:22:36.587Z,44.92
2023-11-22T08:23:36.865Z,44.92
2023-11-22T08:24:37.102Z,44.92
2023-11-22T08:25:37.372Z,44.92
2023-11-22T08:26:37.685Z,45.01
2023-11-22T08:27:37.933Z,45.12
2023-11-22T08:28:38.182Z,45.12
2023-11-22T08:29:38.922Z,45.12
2023-11-22T08:30:39.442Z,45.12
2023-11-22T08:31:39.083Z,45.12
2023-11-22T08:32:39.377Z,45.01
2023-11-22T08:33:39.754Z,44.92
2023-11-22T08:34:39.876Z,44.92
2023-11-22T08:35:40.178Z,45.01
2023-11-22T08:36:40.494Z,44.92
2023-11-22T08:37:40.802Z,44.82
2023-11-22T08:38:41.081Z,45.01
2023-11-22T08:39:41.318Z,45.12
2023-11-22T08:40:41.574Z,45.12
2023-11-22T08:41:41.940Z,45.12
2023-11-22T08:42:42.241Z,45.31
2023-11-22T08:43:42.867Z,45.21
2023-11-22T08:44:42.791Z,45.21
2023-11-22T08:45:43.027Z,45.12
2023-11-22T08:46:43.320Z,45.12
2023-11-22T08:47:43.645Z,45.01
2023-11-22T08:48:44.460Z,45.12
2023-11-22T08:49:44.201Z,45.12
2023-11-22T08:50:44.495Z,45.01
2023-11-22T08:51:44.743Z,45.12
2023-11-22T08:52:45.030Z,45.21
2023-11-22T08:53:45.516Z,45.21
2023-11-22T08:54:45.627Z,45.21
2023-11-22T08:55:45.874Z,45.21
2023-11-22T08:56:46.219Z,45.21
2023-11-22T08:57:46.460Z,45.21
2023-11-22T08:58:46.728Z,45.21
2023-11-22T08:59:48.027Z,45.12
2023-11-22T09:00:47.384Z,45.12
2023-11-22T09:01:47.637Z,45.31
2023-11-22T09:02:47.958Z,45.31
2023-11-22T09:03:48.354Z,45.31
2023-11-22T09:04:48.488Z,45.21
2023-11-22T09:05:48.782Z,45.21
2023-11-22T09:06:49.034Z,45.20
2023-11-22T09:07:49.309Z,45.20
2023-11-22T09:08:49.613Z,45.09
2023-11-22T09:09:49.858Z,45.09
2023-11-22T09:10:50.110Z,45.20
2023-11-22T09:11:50.397Z,45.20
2023-11-22T09:12:50.635Z,45.29
2023-11-22T09:13:50.896Z,45.29
2023-11-22T09:14:51.228Z,45.20
2023-11-22T09:15:51.463Z,45.20
2023-11-22T09:16:51.768Z,45.20
2023-11-22T09:17:52.073Z,45.29
2023-11-22T09:18:52.297Z,45.29
2023-11-22T09:19:52.570Z,45.31
2023-11-22T09:20:52.883Z,45.29
2023-11-22T09:21:53.119Z,45.20
2023-11-22T09:22:53.376Z,45.20
2023-11-22T09:23:53.661Z,45.09
2023-11-22T09:24:53.901Z,45.50
2023-11-22T09:25:54.178Z,45.50
2023-11-22T09:26:54.436Z,45.50
2023-11-22T09:27:54.701Z,45.29
2023-11-22T09:28:54.987Z,45.20
2023-11-22T09:29:55.283Z,45.20
2023-11-22T09:30:55.511Z,45.20
2023-11-22T09:31:55.792Z,45.20
2023-11-22T09:32:56.129Z,45.20
2023-11-22T09:33:56.425Z,45.20
2023-11-22T09:34:56.676Z,45.20
2023-11-22T09:35:57.027Z,45.09
2023-11-22T09:36:57.133Z,45.09
2023-11-22T09:37:57.411Z,45.00
2023-11-22T09:38:57.691Z,45.00
2023-11-22T09:39:57.938Z,45.09
2023-11-22T09:40:58.200Z,45.00
2023-11-22T09:41:58.509Z,45.00
2023-11-22T09:42:58.798Z,44.89
2023-11-22T09:43:59.060Z,45.29
2023-11-22T09:44:59.315Z,45.39
2023-11-22T09:46:01.575Z,45.59
2023-11-22T09:46:59.898Z,45.69
2023-11-22T09:48:02.391Z,45.59
2023-11-22T09:49:00.453Z,45.59
2023-11-22T09:50:00.735Z,45.50
2023-11-22T09:51:00.970Z,45.59
2023-11-22T09:52:01.265Z,45.50
2023-11-22T09:53:01.532Z,45.39
2023-11-22T09:54:02.018Z,45.39
2023-11-22T09:55:02.105Z,45.50
2023-11-22T09:56:02.380Z,45.39
2023-11-22T09:57:02.656Z,45.50
2023-11-22T09:58:02.924Z,45.50
2023-11-22T09:59:03.206Z,45.59
2023-11-22T10:00:03.475Z,45.59
2023-11-22T10:01:03.704Z,45.39
2023-11-22T10:02:03.992Z,45.29
2023-11-22T10:03:04.400Z,45.29
2023-11-22T10:04:04.686Z,45.29
2023-11-22T10:05:04.778Z,45.29
2023-11-22T10:06:05.064Z,45.39
2023-11-22T10:07:05.325Z,45.39
2023-11-22T10:08:05.686Z,45.29
2023-11-22T10:09:06.189Z,45.29
2023-11-22T10:10:06.454Z,45.29
2023-11-22T10:11:06.877Z,45.20
2023-11-22T10:12:07.244Z,45.20
2023-11-22T10:13:07.662Z,45.20
2023-11-22T10:14:08.200Z,45.29
2023-11-22T10:15:10.000Z,45.29
2023-11-22T10:16:07.986Z,45.39
2023-11-22T10:17:08.250Z,45.50
2023-11-22T10:18:08.741Z,45.39
2023-11-22T10:19:08.966Z,45.29
2023-11-22T10:20:09.197Z,45.29
2023-11-22T10:21:09.459Z,45.29
2023-11-22T10:22:09.761Z,45.29
2023-11-22T10:23:10.060Z,45.29
2023-11-22T10:24:10.324Z,45.29
2023-11-22T10:25:10.580Z,45.20
2023-11-22T10:26:10.867Z,45.20
2023-11-22T10:27:11.123Z,45.29
2023-11-22T10:28:11.430Z,45.29
2023-11-22T10:29:11.725Z,45.20
2023-11-22T10:30:11.953Z,45.20
2023-11-22T10:31:12.257Z,45.20
2023-11-22T10:32:12.548Z,45.29
2023-11-22T10:33:12.796Z,45.39
2023-11-22T10:34:13.041Z,45.69
2023-11-22T10:35:13.309Z,45.59
2023-11-22T10:36:13.523Z,45.50
2023-11-22T10:37:13.767Z,45.39
2023-11-22T10:38:14.056Z,45.39
2023-11-22T10:39:14.299Z,45.39
2023-11-22T10:40:14.558Z,45.39
2023-11-22T10:41:14.955Z,45.39
2023-11-22T10:42:15.050Z,45.39
2023-11-22T10:43:15.310Z,45.39
2023-11-22T10:44:15.536Z,45.29
2023-11-22T10:45:15.797Z,45.39
2023-11-22T10:46:16.185Z,45.39
2023-11-22T10:47:16.870Z,45.39
2023-11-22T10:48:16.772Z,45.39
2023-11-22T10:49:18.850Z,45.39
2023-11-22T10:50:17.374Z,45.29
2023-11-22T10:51:17.598Z,45.29
2023-11-22T10:52:17.965Z,45.29
2023-11-22T10:53:18.243Z,45.29
2023-11-22T10:54:18.498Z,45.29
2023-11-22T10:55:18.720Z,45.29
2023-11-22T10:56:19.039Z,45.20
2023-11-22T10:57:19.228Z,45.29
2023-11-22T10:58:19.493Z,45.29
2023-11-22T10:59:19.753Z,45.29
2023-11-22T11:00:20.098Z,45.20
2023-11-22T11:01:20.360Z,45.20
2023-11-22T11:02:20.605Z,45.20
2023-11-22T11:03:20.908Z,45.20
2023-11-22T11:04:21.336Z,45.20
2023-11-22T11:05:21.504Z,45.09
2023-11-22T11:06:21.733Z,45.09
2023-11-22T11:07:21.979Z,45.09
2023-11-22T11:08:22.260Z,45.09
2023-11-22T11:09:22.477Z,45.09
2023-11-22T11:10:25.225Z,45.09
2023-11-22T11:11:23.018Z,45.09
2023-11-22T11:12:23.268Z,45.09
2023-11-22T11:13:23.503Z,45.09
2023-11-22T11:14:23.785Z,45.09
2023-11-22T11:15:24.054Z,45.20
2023-11-22T11:16:24.399Z,45.09
2023-11-22T11:17:24.643Z,45.20
2023-11-22T11:18:24.946Z,45.20
2023-11-22T11:19:25.191Z,45.20
2023-11-22T11:20:25.474Z,45.29
2023-11-22T11:21:25.719Z,45.29
2023-11-22T11:22:25.988Z,45.39
2023-11-22T11:23:26.404Z,45.29
2023-11-22T11:24:26.523Z,45.29
2023-11-22T11:25:26.794Z,45.29
2023-11-22T11:26:27.297Z,45.39
2023-11-22T11:27:27.340Z,45.39
2023-11-22T11:28:27.633Z,45.39
2023-11-22T11:29:27.895Z,45.39
2023-11-22T11:30:28.143Z,45.29
2023-11-22T11:31:28.436Z,45.39
2023-11-22T11:32:28.745Z,45.29
2023-11-22T11:33:29.057Z,45.39
2023-11-22T11:34:29.297Z,45.39
2023-11-22T11:35:29.613Z,45.29
2023-11-22T11:36:29.833Z,45.39
2023-11-22T11:37:30.111Z,45.39
2023-11-22T11:38:30.377Z,45.39
2023-11-22T11:39:30.643Z,45.39
2023-11-22T11:40:30.898Z,45.39
2023-11-22T11:41:31.229Z,45.39
2023-11-22T11:42:31.459Z,45.39
2023-11-22T11:43:31.733Z,45.39
2023-11-22T11:44:32.223Z,45.29
2023-11-22T11:45:32.419Z,45.29
2023-11-22T11:46:32.739Z,45.39
2023-11-22T11:47:33.201Z,45.39
2023-11-22T11:48:33.310Z,45.50
2023-11-22T11:49:33.570Z,45.50
2023-11-22T11:50:33.880Z,45.50
2023-11-22T11:51:34.110Z,45.50
2023-11-22T11:52:34.513Z,45.50
2023-11-22T11:53:35.028Z,45.50
2023-11-22T11:54:35.480Z,45.39
2023-11-22T11:55:35.742Z,45.39
2023-11-22T11:56:35.886Z,45.50
2023-11-22T11:57:35.665Z,45.59
2023-11-22T11:58:35.933Z,45.50
2023-11-22T11:59:36.258Z,45.50
2023-11-22T12:00:36.489Z,45.50
2023-11-22T12:01:36.816Z,45.50
2023-11-22T12:02:37.105Z,45.50
2023-11-22T12:03:37.529Z,45.50
2023-11-22T12:04:37.710Z,45.39
2023-11-22T12:05:37.963Z,45.50
2023-11-22T12:06:38.284Z,45.50
2023-11-22T12:07:38.549Z,45.39
2023-11-22T12:08:38.808Z,45.39
2023-11-22T12:09:39.040Z,45.39
2023-11-22T12:10:39.302Z,45.39
2023-11-22T12:11:39.599Z,45.50
2023-11-22T12:12:39.833Z,45.50
2023-11-22T12:13:40.111Z,45.50
2023-11-22T12:14:40.402Z,45.50
2023-11-22T12:15:40.663Z,45.50
2023-11-22T12:16:40.926Z,45.39
2023-11-22T12:17:41.327Z,45.50
2023-11-22T12:18:41.517Z,45.39
2023-11-22T12:19:41.764Z,45.37
2023-11-22T12:20:42.040Z,45.37
2023-11-22T12:21:42.288Z,45.37
2023-11-22T12:22:42.541Z,45.37
2023-11-22T12:23:42.898Z,45.37
2023-11-22T12:24:43.119Z,45.37
2023-11-22T12:25:43.393Z,45.39
2023-11-22T12:26:43.686Z,45.27
2023-11-22T12:27:43.947Z,45.27
2023-11-22T12:28:50.426Z,45.27
2023-11-22T12:29:45.510Z,45.27
2023-11-22T12:30:44.828Z,45.37
2023-11-22T12:31:45.064Z,45.37
2023-11-22T12:32:45.492Z,45.37
2023-11-22T12:33:45.588Z,45.37
2023-11-22T12:34:45.850Z,45.37
2023-11-22T12:35:46.191Z,45.37
2023-11-22T12:36:46.437Z,45.37
2023-11-22T12:37:46.721Z,45.37
2023-11-22T12:38:47.966Z,45.37
2023-11-22T12:39:47.281Z,45.37
2023-11-22T12:40:47.538Z,45.37
2023-11-22T12:41:55.939Z,45.37
2023-11-22T12:42:49.062Z,45.37
2023-11-22T12:43:51.006Z,45.37
2023-11-22T12:44:48.654Z,45.37
2023-11-22T12:45:48.885Z,45.37
2023-11-22T12:46:49.170Z,45.37
2023-11-22T12:47:49.523Z,45.27
2023-11-22T12:48:49.704Z,45.37
2023-11-22T12:49:49.975Z,45.27
2023-11-22T12:50:50.266Z,45.27
2023-11-22T12:51:50.528Z,45.27
2023-11-22T12:52:50.807Z,45.27
2023-11-22T12:53:51.084Z,45.27
2023-11-22T12:54:51.332Z,45.27
2023-11-22T12:55:51.598Z,45.27